createdAt,value
2022-10-01T00:00:26.695Z,97733.84
2022-10-01T00:05:29.023Z,97733.97
2022-10-01T00:10:31.549Z,97747.25
2022-10-01T00:15:33.892Z,97729.22
2022-10-01T00:20:39.977Z,97724.47
2022-10-01T00:25:43.711Z,97726.94
2022-10-01T00:30:48.889Z,97739.06
2022-10-01T00:35:55.002Z,97734.13
2022-10-01T00:40:58.546Z,97719.06
2022-10-01T00:46:41.479Z,97725.72
2022-10-01T00:51:51.599Z,97736.19
2022-10-01T00:56:57.639Z,97748.56
2022-10-01T01:02:00.693Z,97746.53
2022-10-01T01:07:04.921Z,97737.97
2022-10-01T01:12:10.258Z,97732.44
2022-10-01T01:17:34.012Z,97733.97
2022-10-01T01:22:43.555Z,97723.81
2022-10-01T01:27:58.081Z,97721.41
2022-10-01T01:33:11.959Z,97720.25
2022-10-01T01:38:20.373Z,97708.97
2022-10-01T01:43:35.646Z,97688.09
2022-10-01T01:48:41.831Z,97680.22
2022-10-01T01:53:44.286Z,97682.56
2022-10-01T01:58:46.907Z,97661.34
2022-10-01T02:03:49.391Z,97668.13
2022-10-01T02:09:21.507Z,97651.75
2022-10-01T02:14:36.596Z,97660.34
2022-10-01T02:20:06.494Z,97658.31
2022-10-01T02:25:11.435Z,97644.88
2022-10-01T02:30:15.289Z,97646.31
2022-10-01T02:35:19.562Z,97643.13
2022-10-01T02:40:28.626Z,97649.66
2022-10-01T02:45:35.578Z,97648.38
2022-10-01T02:50:51.379Z,97646.31
2022-10-01T02:55:55.587Z,97638.69
2022-10-01T03:00:58.007Z,97635.66
2022-10-01T03:06:00.347Z,97640.63
2022-10-01T03:11:02.688Z,97620.47
2022-10-01T03:16:05.089Z,97626.72
2022-10-01T03:21:07.581Z,97643.50
2022-10-01T03:26:09.988Z,97627.56
2022-10-01T03:31:12.819Z,97627.75
2022-10-01T03:36:15.299Z,97621.81
2022-10-01T03:41:17.717Z,97623.03
2022-10-01T03:46:20.107Z,97616.81
2022-10-01T03:51:22.812Z,97600.09
2022-10-01T03:56:25.741Z,97603.50
2022-10-01T04:01:28.345Z,97595.38
2022-10-01T04:06:31.448Z,97584.66
2022-10-01T04:11:34.135Z,97594.66
2022-10-01T04:16:36.769Z,97586.19
2022-10-01T04:21:39.225Z,97576.31
2022-10-01T04:26:41.638Z,97596.66
2022-10-01T04:31:44.090Z,97581.88
2022-10-01T04:36:46.813Z,97580.19
2022-10-01T04:41:49.441Z,97577.84
2022-10-01T04:46:52.007Z,97577.50
2022-10-01T04:51:54.745Z,97572.47
2022-10-01T04:57:00.685Z,97571.78
2022-10-01T05:02:03.275Z,97570.22
2022-10-01T05:07:06.043Z,97570.91
2022-10-01T05:12:08.370Z,97568.00
2022-10-01T05:17:10.716Z,97566.91
2022-10-01T05:22:13.611Z,97561.78
2022-10-01T05:27:16.025Z,97566.38
2022-10-01T05:32:18.430Z,97565.28
2022-10-01T05:37:20.868Z,97561.94
2022-10-01T05:42:23.547Z,97561.50
2022-10-01T05:47:25.920Z,97562.25
2022-10-01T05:52:28.272Z,97549.97
2022-10-01T05:57:31.359Z,97525.97
2022-10-01T06:02:33.767Z,97524.22
2022-10-01T06:07:36.222Z,97519.03
2022-10-01T06:12:38.550Z,97502.38
2022-10-01T06:17:45.137Z,97491.41
2022-10-01T06:22:55.519Z,97485.19
2022-10-01T06:27:59.924Z,97479.31
2022-10-01T06:33:09.566Z,97472.56
2022-10-01T06:38:12.293Z,97486.38
2022-10-01T06:43:14.613Z,97478.22
2022-10-01T06:48:19.691Z,97479.53
2022-10-01T06:53:22.209Z,97471.91
2022-10-01T06:58:26.393Z,97481.06
2022-10-01T07:03:29.404Z,97481.16
2022-10-01T07:08:33.278Z,97486.50
2022-10-01T07:13:35.812Z,97490.19
2022-10-01T07:18:38.147Z,97485.72
2022-10-01T07:23:40.503Z,97483.78
2022-10-01T07:28:44.656Z,97461.03
2022-10-01T07:33:48.251Z,97466.22
2022-10-01T07:38:51.288Z,97454.75
2022-10-01T07:43:53.988Z,97457.97
2022-10-01T07:48:56.455Z,97450.19
2022-10-01T07:53:59.253Z,97468.44
2022-10-01T07:59:02.843Z,97464.09
2022-10-01T08:04:26.175Z,97461.28
2022-10-01T08:09:28.615Z,97461.81
2022-10-01T08:14:30.992Z,97468.31
2022-10-01T08:19:34.314Z,97459.81
2022-10-01T08:24:36.927Z,97464.16
2022-10-01T08:29:39.776Z,97458.47
2022-10-01T08:34:42.150Z,97467.97
2022-10-01T08:39:44.497Z,97478.66
2022-10-01T08:44:47.606Z,97484.63
2022-10-01T08:49:56.536Z,97487.34
2022-10-01T08:55:05.521Z,97494.50
2022-10-01T09:00:17.571Z,97477.84
2022-10-01T09:05:31.224Z,97486.75
2022-10-01T09:10:53.634Z,97494.22
2022-10-01T09:16:29.833Z,97505.72
2022-10-01T09:21:55.755Z,97512.84
2022-10-01T09:26:58.241Z,97509.16
2022-10-01T09:32:03.854Z,97499.53
2022-10-01T09:37:14.825Z,97503.59
2022-10-01T09:42:18.538Z,97509.28
2022-10-01T09:47:23.085Z,97511.13
2022-10-01T09:52:36.743Z,97506.13
2022-10-01T09:57:44.727Z,97518.28
2022-10-01T10:02:54.149Z,97509.59
2022-10-01T10:08:23.930Z,97527.72
2022-10-01T10:13:48.660Z,97529.69
2022-10-01T10:18:52.516Z,97522.97
2022-10-01T10:24:00.943Z,97515.25
2022-10-01T10:29:04.943Z,97531.84
2022-10-01T10:34:21.560Z,97535.19
2022-10-01T10:39:32.032Z,97531.19
2022-10-01T10:44:39.664Z,97529.44
2022-10-01T10:49:45.879Z,97529.19
2022-10-01T10:54:50.731Z,97530.44
2022-10-01T10:59:59.798Z,97516.22
2022-10-01T11:05:19.117Z,97505.06
2022-10-01T11:10:51.294Z,97501.19
2022-10-01T11:16:29.609Z,97515.59
2022-10-01T11:21:32.008Z,97500.50
2022-10-01T11:26:43.970Z,97496.44
2022-10-01T11:31:59.016Z,97502.31
2022-10-01T11:37:10.699Z,97500.91
2022-10-01T11:42:34.861Z,97515.75
2022-10-01T11:47:44.071Z,97522.50
2022-10-01T11:53:12.686Z,97530.28
2022-10-01T11:58:43.059Z,97533.50
2022-10-01T12:04:07.084Z,97543.94
2022-10-01T12:09:31.823Z,97550.84
2022-10-01T12:14:34.145Z,97549.19
2022-10-01T12:19:41.541Z,97555.66
2022-10-01T12:24:45.007Z,97564.19
2022-10-01T12:30:01.379Z,97573.28
2022-10-01T12:35:35.683Z,97573.75
2022-10-01T12:40:51.401Z,97580.16
2022-10-01T12:46:26.441Z,97591.66
2022-10-01T12:51:40.266Z,97589.38
2022-10-01T12:57:31.869Z,97594.09
2022-10-01T13:02:55.678Z,97609.06
2022-10-01T13:08:06.906Z,97605.94
2022-10-01T13:13:23.052Z,97605.97
2022-10-01T13:18:40.660Z,97597.91
2022-10-01T13:24:01.888Z,97595.03
2022-10-01T13:29:23.079Z,97590.25
2022-10-01T13:34:46.276Z,97598.78
2022-10-01T13:39:48.984Z,97588.59
2022-10-01T13:44:57.044Z,97601.38
2022-10-01T13:50:04.476Z,97596.09
2022-10-01T13:55:07.116Z,97600.13
2022-10-01T14:00:12.535Z,97605.25
2022-10-01T14:05:35.389Z,97596.75
2022-10-01T14:11:04.676Z,97599.31
2022-10-01T14:16:07.612Z,97618.53
2022-10-01T14:21:34.706Z,97592.56
2022-10-01T14:26:54.517Z,97590.19
2022-10-01T14:32:12.361Z,97594.78
2022-10-01T14:37:18.894Z,97592.47
2022-10-01T14:42:21.515Z,97593.22
2022-10-01T14:47:27.991Z,97594.09
2022-10-01T14:52:32.727Z,97608.44
2022-10-01T14:57:37.996Z,97600.63
2022-10-01T15:02:49.250Z,97602.63
2022-10-01T15:07:51.899Z,97610.88
2022-10-01T15:12:55.633Z,97601.75
2022-10-01T15:17:58.236Z,97613.28
2022-10-01T15:23:01.797Z,97624.56
2022-10-01T15:28:14.703Z,97622.16
2022-10-01T15:33:27.786Z,97630.03
2022-10-01T15:38:32.175Z,97625.81
2022-10-01T15:43:35.528Z,97627.31
2022-10-01T15:48:38.296Z,97626.72
2022-10-01T15:53:41.040Z,97639.50
2022-10-01T15:58:58.498Z,97655.00
2022-10-01T16:04:12.103Z,97651.22
2022-10-01T16:09:18.982Z,97663.06
2022-10-01T16:14:30.390Z,97671.13
2022-10-01T16:19:32.836Z,97679.00
2022-10-01T16:24:47.025Z,97687.97
2022-10-01T16:30:05.394Z,97699.19
2022-10-01T16:35:32.586Z,97713.31
2022-10-01T16:40:42.864Z,97699.34
2022-10-01T16:45:45.699Z,97706.31
2022-10-01T16:50:48.453Z,97709.66
2022-10-01T16:55:51.078Z,97721.50
2022-10-01T17:00:53.654Z,97730.94
2022-10-01T17:05:56.155Z,97734.59
2022-10-01T17:11:01.242Z,97750.06
2022-10-01T17:16:05.911Z,97757.22
2022-10-01T17:21:10.156Z,97756.47
2022-10-01T17:26:12.596Z,97757.22
2022-10-01T17:31:17.998Z,97769.81
2022-10-01T17:36:20.691Z,97785.78
2022-10-01T17:41:23.141Z,97787.13
2022-10-01T17:46:25.529Z,97793.19
2022-10-01T17:51:28.268Z,97803.97
2022-10-01T17:56:33.054Z,97807.13
2022-10-01T18:01:35.761Z,97825.84
2022-10-01T18:06:38.287Z,97828.09
2022-10-01T18:11:40.926Z,97831.16
2022-10-01T18:16:43.331Z,97838.59
2022-10-01T18:21:46.769Z,97837.25
2022-10-01T18:26:49.298Z,97851.78
2022-10-01T18:32:11.309Z,97852.06
2022-10-01T18:37:28.366Z,97874.69
2022-10-01T18:42:39.771Z,97889.69
2022-10-01T18:48:36.218Z,97907.22
2022-10-01T18:53:44.739Z,97927.25
2022-10-01T18:59:17.893Z,97928.19
2022-10-01T19:04:45.511Z,97946.06
2022-10-01T19:09:53.897Z,97954.56
2022-10-01T19:15:18.744Z,97955.97
2022-10-01T19:20:45.934Z,97964.31
2022-10-01T19:25:51.125Z,97974.13
2022-10-01T19:31:15.894Z,97968.41
2022-10-01T19:36:34.560Z,97979.03
2022-10-01T19:41:47.298Z,97996.50
2022-10-01T19:46:51.765Z,97998.78
2022-10-01T19:52:18.265Z,98006.09
2022-10-01T19:57:31.782Z,98018.13
2022-10-01T20:02:45.832Z,98013.75
2022-10-01T20:08:05.297Z,98016.47
2022-10-01T20:13:13.466Z,98019.22
2022-10-01T20:19:08.875Z,98034.38
2022-10-01T20:24:20.498Z,98044.75
2022-10-01T20:29:38.126Z,98068.56
2022-10-01T20:35:13.182Z,98077.53
2022-10-01T20:40:37.311Z,98092.69
2022-10-01T20:45:41.330Z,98083.41
2022-10-01T20:50:50.425Z,98089.63
2022-10-01T20:56:04.402Z,98094.78
2022-10-01T21:01:18.045Z,98095.97
2022-10-01T21:06:33.383Z,98103.88
2022-10-01T21:11:41.927Z,98089.13
2022-10-01T21:17:00.775Z,98111.72
2022-10-01T21:22:32.284Z,98116.31
2022-10-01T21:28:11.273Z,98135.75
2022-10-01T21:33:21.943Z,98143.63
2022-10-01T21:38:40.658Z,98146.88
2022-10-01T21:43:59.217Z,98150.19
2022-10-01T21:49:13.492Z,98166.09
2022-10-01T21:54:49.146Z,98166.09
2022-10-01T22:00:19.521Z,98177.91
2022-10-01T22:05:25.286Z,98180.97
2022-10-01T22:10:36.308Z,98190.16
2022-10-01T22:15:43.778Z,98201.06
2022-10-01T22:20:48.480Z,98212.19
2022-10-01T22:26:03.508Z,98210.88
2022-10-01T22:31:11.070Z,98198.75
2022-10-01T22:36:26.278Z,98200.25
2022-10-01T22:41:33.444Z,98203.00
2022-10-01T22:47:04.189Z,98217.84
2022-10-01T22:52:18.094Z,98210.88
2022-10-01T22:57:26.097Z,98212.03
2022-10-01T23:02:39.792Z,98218.34
2022-10-01T23:08:19.520Z,98218.97
2022-10-01T23:13:53.145Z,98218.75
2022-10-01T23:19:14.337Z,98225.41
2022-10-01T23:24:42.022Z,98230.09
2022-10-01T23:29:59.106Z,98236.66
2022-10-01T23:35:20.629Z,98247.13
2022-10-01T23:40:27.810Z,98280.13
2022-10-01T23:46:11.753Z,98272.63
2022-10-01T23:51:20.301Z,98267.81
2022-10-01T23:56:49.454Z,98280.25
